Time;durP1;ratioP1;P1;durP2;ratioP2;P2;SDS_P1;SDS_P2;PMS_P1;PMS_P2;Temp;Humidity;BMP_temperature;BMP_pressure;BME280_temperature;BME280_humidity;BME280_pressure;Samples;Min_cycle;Max_cycle;Signal;HPM_P1;HPM_P2
2023/08/02 04:06:02;;;;;;;1.20;1.10;;;16.50;97.30;;;;;;4952596;29;20445;-87
2023/08/02 04:09:22;;;;;;;0.90;0.80;;;16.50;97.30;;;;;;4948945;28;20520;-89
2023/08/02 04:15:10;;;;;;;1.30;1.20;;;16.50;97.30;;;;;;4933926;29;20415;-88
2023/08/02 04:17:57;;;;;;;0.90;0.80;;;16.60;97.30;;;;;;4925774;29;20527;-89
2023/08/02 04:20:23;;;;;;;1.20;1.10;;;16.60;97.30;;;;;;4933125;23;20960;-71
2023/08/02 04:22:49;;;;;;;1.17;1.00;;;16.60;97.30;;;;;;4971458;28;20453;-71
2023/08/02 04:25:15;;;;;;;1.10;1.00;;;16.60;97.30;;;;;;4971384;28;20213;-71
2023/08/02 04:27:41;;;;;;;0.90;0.80;;;16.60;97.30;;;;;;4972640;28;20496;-72
2023/08/02 04:30:07;;;;;;;1.43;1.20;;;16.60;97.30;;;;;;4971244;28;20430;-73
2023/08/02 04:32:33;;;;;;;0.90;0.80;;;16.70;97.30;;;;;;4971089;28;20248;-73
2023/08/02 04:34:59;;;;;;;1.00;0.90;;;16.70;97.30;;;;;;4954951;28;20453;-71
2023/08/02 04:37:24;;;;;;;1.07;0.97;;;16.70;97.30;;;;;;4971004;28;20688;-73
2023/08/02 04:39:50;;;;;;;2.30;1.10;;;16.70;97.30;;;;;;4972350;28;20182;-72
2023/08/02 04:42:16;;;;;;;1.30;1.20;;;16.70;97.30;;;;;;4955205;28;20749;-72
2023/08/02 04:44:42;;;;;;;1.03;0.93;;;16.80;97.30;;;;;;4978909;28;20192;-73
2023/08/02 04:47:08;;;;;;;1.10;1.00;;;16.80;97.30;;;;;;4991260;28;20425;-66
2023/08/02 04:49:34;;;;;;;0.90;0.80;;;16.80;97.30;;;;;;4981638;28;20189;-71
2023/08/02 04:52:00;;;;;;;1.10;1.00;;;16.80;97.30;;;;;;4970813;28;20237;-73
2023/08/02 04:54:25;;;;;;;2.30;1.43;;;16.80;97.30;;;;;;4987851;28;20832;-71
2023/08/02 04:56:51;;;;;;;1.60;1.50;;;16.90;97.30;;;;;;4982687;28;20182;-71
2023/08/02 04:59:16;;;;;;;1.43;1.43;;;16.80;97.30;;;;;;4981706;28;20185;-72
2023/08/02 05:01:42;;;;;;;1.00;0.90;;;16.80;97.30;;;;;;4986779;28;20348;-73
2023/08/02 05:04:08;;;;;;;1.00;0.90;;;16.90;97.30;;;;;;4980094;28;20214;-72
2023/08/02 05:06:34;;;;;;;1.10;1.00;;;16.90;97.30;;;;;;4970489;28;20198;-72
2023/08/02 05:09:04;;;;;;;1.17;1.00;;;16.90;97.30;;;;;;4972126;28;20418;-72
2023/08/02 05:11:31;;;;;;;1.20;1.10;;;16.90;97.30;;;;;;4971435;28;20669;-72
2023/08/02 05:13:57;;;;;;;1.10;1.00;;;16.90;97.30;;;;;;4970544;28;20432;-75
2023/08/02 05:16:23;;;;;;;1.00;0.90;;;16.90;97.30;;;;;;4978135;28;20428;-66
2023/08/02 05:18:48;;;;;;;0.97;0.87;;;17.00;97.30;;;;;;4970557;28;20876;-67
2023/08/02 05:21:15;;;;;;;1.00;0.90;;;17.00;97.30;;;;;;4971531;28;20300;-70
2023/08/02 05:23:41;;;;;;;0.97;0.87;;;17.00;97.30;;;;;;4970245;28;20216;-71
2023/08/02 05:26:07;;;;;;;1.00;0.90;;;17.00;97.30;;;;;;4970240;28;20440;-70
2023/08/02 05:28:33;;;;;;;1.00;0.90;;;17.00;97.30;;;;;;4971683;28;20433;-72
2023/08/02 05:30:59;;;;;;;21.47;1.40;;;17.00;97.30;;;;;;4971128;28;20449;-72
2023/08/02 05:33:24;;;;;;;1.00;0.90;;;17.00;97.30;;;;;;4970081;28;20502;-72
2023/08/02 05:35:50;;;;;;;0.90;0.80;;;17.00;97.30;;;;;;4969639;28;20170;-70
2023/08/02 05:38:16;;;;;;;0.90;0.80;;;17.00;97.30;;;;;;4971797;28;20617;-70
2023/08/02 05:40:41;;;;;;;0.97;0.87;;;17.00;97.30;;;;;;4969261;28;20206;-70
2023/08/02 05:43:07;;;;;;;1.10;1.00;;;17.10;97.30;;;;;;4971086;28;20190;-72
2023/08/02 05:45:32;;;;;;;0.90;0.80;;;17.00;97.30;;;;;;4969556;28;20196;-71
2023/08/02 05:47:58;;;;;;;1.13;1.03;;;17.10;97.30;;;;;;4969911;28;20621;-70
2023/08/02 05:50:25;;;;;;;1.00;0.90;;;17.10;97.30;;;;;;4970970;28;20441;-72
2023/08/02 05:52:50;;;;;;;1.53;1.27;;;17.10;97.30;;;;;;4969464;28;20469;-71
2023/08/02 05:55:17;;;;;;;1.10;1.00;;;17.10;97.30;;;;;;4970850;28;20826;-70
2023/08/02 05:57:43;;;;;;;1.00;0.90;;;17.20;97.30;;;;;;4970844;28;20248;-69
2023/08/02 06:00:09;;;;;;;1.20;1.10;;;17.20;97.30;;;;;;4970601;28;20863;-71
2023/08/02 06:02:35;;;;;;;1.00;0.90;;;17.20;97.30;;;;;;4971841;28;20513;-69
2023/08/02 06:05:01;;;;;;;0.90;0.90;;;17.30;97.30;;;;;;4976306;28;20440;-72
2023/08/02 06:07:27;;;;;;;1.00;0.90;;;17.30;97.30;;;;;;4978802;28;20429;-71
2023/08/02 06:09:52;;;;;;;1.30;0.97;;;17.40;97.30;;;;;;4969756;28;20375;-72
2023/08/02 06:12:18;;;;;;;1.73;1.63;;;17.40;97.30;;;;;;4970675;28;20682;-72
2023/08/02 06:14:43;;;;;;;1.30;1.20;;;17.40;97.30;;;;;;4969065;28;20710;-73
2023/08/02 06:17:09;;;;;;;1.20;1.10;;;17.50;97.30;;;;;;4969044;28;20585;-72
2023/08/02 06:19:34;;;;;;;1.10;1.00;;;17.60;97.30;;;;;;4970004;28;20646;-72
2023/08/02 06:22:00;;;;;;;1.00;0.90;;;17.60;97.30;;;;;;4973355;28;20709;-71
2023/08/02 06:24:25;;;;;;;1.00;0.90;;;17.70;97.30;;;;;;4966929;28;20321;-72
2023/08/02 06:26:51;;;;;;;1.00;0.90;;;17.80;97.30;;;;;;4972016;28;20192;-70
2023/08/02 06:29:16;;;;;;;1.10;1.00;;;18.00;97.30;;;;;;4972323;28;20245;-66
2023/08/02 06:31:42;;;;;;;1.00;0.90;;;18.00;97.30;;;;;;4969234;28;20221;-72
2023/08/02 06:34:08;;;;;;;1.60;1.13;;;18.00;97.30;;;;;;4968863;28;20187;-66
2023/08/02 06:36:34;;;;;;;1.70;1.60;;;;;;;;;;4968447;28;20182;-70
2023/08/02 06:39:00;;;;;;;1.73;1.63;;;18.10;97.30;;;;;;4969304;28;20186;-70
2023/08/02 06:41:25;;;;;;;1.47;1.37;;;18.10;97.30;;;;;;4970517;28;20874;-71
2023/08/02 06:43:51;;;;;;;1.00;0.90;;;18.20;97.30;;;;;;4970601;28;20651;-70
2023/08/02 06:46:16;;;;;;;1.27;1.17;;;18.20;97.30;;;;;;4968926;28;20194;-67
2023/08/02 06:48:42;;;;;;;0.93;0.83;;;18.30;97.30;;;;;;4970281;28;20202;-67
2023/08/02 06:51:14;;;;;;;1.00;0.90;;;18.30;97.30;;;;;;4974939;28;20277;-68
2023/08/02 06:53:40;;;;;;;1.87;1.43;;;18.40;97.30;;;;;;4969944;28;20215;-65
2023/08/02 06:56:16;;;;;;;2.70;1.17;;;18.50;97.30;;;;;;4969863;28;20510;-69
2023/08/02 06:58:42;;;;;;;2.03;1.30;;;18.60;97.30;;;;;;4968769;28;20413;-72
2023/08/02 07:01:17;;;;;;;1.33;0.90;;;18.60;97.30;;;;;;4968742;28;20481;-72
2023/08/02 07:03:43;;;;;;;1.00;0.90;;;18.70;97.30;;;;;;4968747;28;20440;-67
2023/08/02 07:06:19;;;;;;;1.67;1.13;;;18.70;97.30;;;;;;4977794;28;20433;-71
2023/08/02 07:08:45;;;;;;;1.63;1.53;;;18.80;97.30;;;;;;4970005;28;20468;-74
2023/08/02 07:11:11;;;;;;;10.60;1.13;;;18.80;97.30;;;;;;4977389;28;20450;-66
2023/08/02 07:13:37;;;;;;;1.20;1.10;;;18.80;97.30;;;;;;4969624;28;20474;-72
2023/08/02 07:16:04;;;;;;;2.03;1.10;;;18.90;97.30;;;;;;4969596;28;20516;-72
2023/08/02 07:18:31;;;;;;;1.40;1.30;;;18.90;97.30;;;;;;4969810;28;20831;-66
2023/08/02 07:21:02;;;;;;;0.90;0.80;;;19.00;97.30;;;;;;4948567;28;20557;-69
2023/08/02 07:23:27;;;;;;;1.27;1.17;;;19.00;97.30;;;;;;4965728;28;20461;-68
2023/08/02 07:25:53;;;;;;;1.20;1.10;;;19.00;97.30;;;;;;4977708;28;20446;-71
2023/08/02 07:28:18;;;;;;;1.33;1.00;;;19.10;97.30;;;;;;4969948;28;20363;-69
2023/08/02 07:30:45;;;;;;;1.20;0.90;;;19.10;97.30;;;;;;4971589;28;20234;-71
2023/08/02 07:33:10;;;;;;;3.53;1.43;;;19.10;97.30;;;;;;4973672;28;20297;-72
2023/08/02 07:35:36;;;;;;;3.57;2.37;;;19.10;97.30;;;;;;4973546;28;20868;-69
2023/08/02 07:38:02;;;;;;;0.93;0.83;;;19.20;97.30;;;;;;4969976;28;20182;-72
2023/08/02 07:40:28;;;;;;;1.07;0.97;;;19.30;97.30;;;;;;4979078;28;20450;-71
2023/08/02 07:42:54;;;;;;;0.90;0.80;;;19.40;97.30;;;;;;4970971;28;20675;-69
2023/08/02 07:45:19;;;;;;;1.30;1.20;;;19.50;97.30;;;;;;4978208;28;20290;-71
2023/08/02 07:47:46;;;;;;;1.53;1.43;;;19.50;97.30;;;;;;4983468;28;20189;-68
2023/08/02 07:50:12;;;;;;;1.00;0.90;;;19.60;97.30;;;;;;4984898;28;20240;-70
2023/08/02 07:52:37;;;;;;;3.37;1.37;;;19.80;97.30;;;;;;4974766;28;20473;-71
2023/08/02 07:55:03;;;;;;;1.00;0.90;;;19.80;97.30;;;;;;4973157;28;20190;-66
2023/08/02 07:57:34;;;;;;;1.47;1.37;;;19.80;97.30;;;;;;4972772;28;20190;-70
2023/08/02 08:00:00;;;;;;;1.10;1.00;;;19.80;97.30;;;;;;4975041;28;20443;-68
2023/08/02 08:02:26;;;;;;;2.50;1.53;;;19.80;97.30;;;;;;4976214;28;20515;-73
2023/08/02 08:04:53;;;;;;;1.00;0.90;;;19.80;97.30;;;;;;4971760;28;20522;-69
2023/08/02 08:07:18;;;;;;;2.40;1.47;;;19.80;97.30;;;;;;4972716;28;20425;-69
2023/08/02 08:09:44;;;;;;;1.00;0.90;;;19.90;97.30;;;;;;4972996;28;20429;-66
2023/08/02 08:12:09;;;;;;;1.23;1.00;;;19.90;97.30;;;;;;4972630;28;20206;-70
2023/08/02 08:14:35;;;;;;;0.90;0.80;;;20.00;97.30;;;;;;4972525;28;20221;-69
2023/08/02 08:17:01;;;;;;;0.90;0.80;;;20.00;97.30;;;;;;4980730;28;20187;-70
2023/08/02 08:19:28;;;;;;;1.10;1.00;;;20.00;97.30;;;;;;4972864;28;20198;-68
2023/08/02 08:21:54;;;;;;;0.90;0.80;;;20.10;97.30;;;;;;4972168;28;20610;-69
2023/08/02 08:24:20;;;;;;;1.60;1.50;;;20.10;97.30;;;;;;4972852;28;21012;-69
2023/08/02 08:26:45;;;;;;;1.10;1.00;;;20.20;97.30;;;;;;4972615;28;20193;-65
2023/08/02 08:29:11;;;;;;;1.17;1.07;;;20.30;97.30;;;;;;4972672;28;20789;-71
2023/08/02 08:31:37;;;;;;;0.93;0.90;;;20.40;97.30;;;;;;4971119;28;20825;-70
2023/08/02 08:34:03;;;;;;;0.87;0.83;;;20.40;96.90;;;;;;4971269;28;20194;-66
2023/08/02 08:36:31;;;;;;;2.60;2.40;;;20.40;96.80;;;;;;4975694;28;20174;-71
2023/08/02 08:38:57;;;;;;;3.60;1.90;;;20.30;96.80;;;;;;4970179;28;20433;-68
2023/08/02 08:41:23;;;;;;;1.00;0.93;;;20.40;97.30;;;;;;4970685;28;20450;-68
2023/08/02 08:43:49;;;;;;;3.50;2.03;;;20.40;97.00;;;;;;4969494;28;21018;-71
2023/08/02 08:46:16;;;;;;;1.10;1.00;;;20.40;97.10;;;;;;4972282;28;20194;-70
2023/08/02 08:48:42;;;;;;;1.33;1.23;;;20.50;97.30;;;;;;4972141;28;20430;-69
2023/08/02 08:51:12;;;;;;;1.20;1.10;;;20.50;96.50;;;;;;4970586;28;20464;-70
2023/08/02 08:53:43;;;;;;;1.00;0.90;;;20.50;96.90;;;;;;4973028;28;20466;-67
2023/08/02 08:56:10;;;;;;;1.43;1.40;;;20.60;97.10;;;;;;4977748;28;20425;-70
2023/08/02 08:58:37;;;;;;;1.20;1.10;;;20.60;96.60;;;;;;4971440;28;20951;-70
2023/08/02 09:01:04;;;;;;;3.60;0.97;;;20.70;96.40;;;;;;4970458;28;20902;-66
2023/08/02 09:03:30;;;;;;;1.10;1.00;;;20.80;96.10;;;;;;4971731;28;20417;-71
2023/08/02 09:06:03;;;;;;;1.00;0.90;;;20.90;95.80;;;;;;4972916;28;20926;-72
2023/08/02 09:08:39;;;;;;;2.07;1.37;;;21.00;95.70;;;;;;4975252;28;20190;-70
2023/08/02 09:11:05;;;;;;;1.23;1.20;;;21.20;96.60;;;;;;4970245;28;20441;-72
2023/08/02 09:13:31;;;;;;;1.20;1.10;;;21.30;95.50;;;;;;4970535;28;21000;-70
2023/08/02 09:16:14;;;;;;;3.47;1.60;;;21.30;95.50;;;;;;4979869;28;20233;-71
2023/08/02 09:18:42;;;;;;;0.90;0.80;;;21.30;94.90;;;;;;4970565;28;20540;-70
2023/08/02 09:21:11;;;;;;;2.50;1.80;;;21.30;94.50;;;;;;4963775;28;20466;-69
2023/08/02 09:23:36;;;;;;;1.67;0.90;;;21.30;94.50;;;;;;4978408;28;20520;-71
2023/08/02 09:26:14;;;;;;;0.70;0.70;;;21.20;93.80;;;;;;4971584;28;20508;-72
2023/08/02 09:28:39;;;;;;;1.50;1.43;;;21.30;93.50;;;;;;4970394;28;20635;-69
2023/08/02 09:31:17;;;;;;;1.00;0.90;;;21.30;93.50;;;;;;4970293;28;20488;-70
2023/08/02 09:33:51;;;;;;;1.47;1.37;;;21.30;94.00;;;;;;4970259;28;20751;-72
2023/08/02 09:36:23;;;;;;;1.33;1.23;;;21.30;93.00;;;;;;4978536;28;20984;-71
2023/08/02 09:39:01;;;;;;;1.13;1.07;;;21.40;94.30;;;;;;4970159;28;20462;-69
2023/08/02 09:41:27;;;;;;;1.10;1.00;;;21.40;93.20;;;;;;4971777;28;20441;-67
2023/08/02 09:43:53;;;;;;;1.93;1.30;;;21.50;94.10;;;;;;4971537;28;20488;-72
2023/08/02 09:46:35;;;;;;;1.00;0.90;;;21.50;93.70;;;;;;4971527;28;20425;-70
2023/08/02 09:49:02;;;;;;;1.63;1.10;;;21.60;93.40;;;;;;4972561;28;20249;-72
2023/08/02 09:51:41;;;;;;;1.00;1.00;;;21.60;93.10;;;;;;4983395;28;20992;-74
2023/08/02 09:54:08;;;;;;;1.10;1.00;;;21.60;93.20;;;;;;4970794;28;20800;-70
2023/08/02 09:56:36;;;;;;;1.57;1.47;;;21.60;92.80;;;;;;4989340;28;20867;-71
2023/08/02 09:59:03;;;;;;;2.83;1.33;;;21.70;93.50;;;;;;4972028;28;20414;-70
2023/08/02 10:01:30;;;;;;;1.67;1.20;;;21.90;93.00;;;;;;4971208;28;20529;-71
2023/08/02 10:03:59;;;;;;;1.47;1.37;;;21.90;93.00;;;;;;4988917;28;20428;-66
2023/08/02 10:06:29;;;;;;;1.40;0.90;;;21.90;92.10;;;;;;4975366;28;20444;-70
2023/08/02 10:09:04;;;;;;;1.10;1.00;;;21.90;92.60;;;;;;4978669;28;20455;-65
2023/08/02 10:11:51;;;;;;;1.00;0.90;;;21.90;93.50;;;;;;4973801;28;20508;-73
2023/08/02 10:14:18;;;;;;;1.30;1.20;;;21.80;92.80;;;;;;4965898;28;20787;-70
2023/08/02 10:16:45;;;;;;;1.53;1.43;;;21.80;93.80;;;;;;4969071;28;20492;-70
2023/08/02 10:19:14;;;;;;;1.10;1.00;;;21.80;93.40;;;;;;4970913;28;20422;-72
2023/08/02 10:21:40;;;;;;;6.77;2.27;;;21.80;93.20;;;;;;4978508;28;20460;-72
2023/08/02 10:24:06;;;;;;;1.00;0.90;;;21.80;93.60;;;;;;4953514;28;20442;-71
2023/08/02 10:26:32;;;;;;;1.57;1.47;;;21.90;94.80;;;;;;4969102;28;20182;-71
2023/08/02 10:29:01;;;;;;;1.70;1.60;;;22.00;93.40;;;;;;4970438;28;20513;-68
2023/08/02 10:31:26;;;;;;;2.43;2.23;;;22.00;91.20;;;;;;4983813;28;20528;-67
2023/08/02 10:33:54;;;;;;;1.30;1.23;;;22.00;90.60;;;;;;4972756;28;20622;-70
2023/08/02 10:36:20;;;;;;;0.90;0.90;;;22.00;90.60;;;;;;4971563;28;20430;-65
2023/08/02 10:38:47;;;;;;;1.63;1.00;;;21.90;90.20;;;;;;4978154;28;20933;-69
2023/08/02 10:41:14;;;;;;;0.80;0.80;;;21.90;90.40;;;;;;4970779;28;20210;-70
2023/08/02 10:43:54;;;;;;;1.00;0.90;;;21.70;90.10;;;;;;4970165;28;20449;-65
2023/08/02 10:46:29;;;;;;;1.20;1.10;;;21.60;90.50;;;;;;4970498;28;20428;-70
2023/08/02 10:49:10;;;;;;;0.93;0.83;;;21.50;91.20;;;;;;4977001;28;21020;-67
2023/08/02 10:51:37;;;;;;;1.10;1.00;;;21.40;92.10;;;;;;4968681;28;20453;-73
2023/08/02 10:54:19;;;;;;;1.13;1.10;;;21.40;92.60;;;;;;4968447;28;20426;-70
2023/08/02 10:56:51;;;;;;;2.00;1.60;;;21.30;92.90;;;;;;4968664;28;20424;-67
2023/08/02 10:59:22;;;;;;;1.17;1.13;;;21.30;92.70;;;;;;4970117;28;20418;-71
2023/08/02 11:02:08;;;;;;;3.90;1.70;;;21.30;92.40;;;;;;4970335;28;20433;-70
2023/08/02 11:04:37;;;;;;;6.90;1.67;;;21.20;92.80;;;;;;4968464;28;20430;-71
2023/08/02 11:07:18;;;;;;;0.90;0.80;;;21.20;93.20;;;;;;4970313;28;20877;-68
2023/08/02 11:09:47;;;;;;;1.03;0.93;;;21.20;93.00;;;;;;4974067;28;20553;-66
2023/08/02 11:12:15;;;;;;;1.20;1.20;;;21.20;93.50;;;;;;4969798;28;20458;-64
2023/08/02 11:14:43;;;;;;;1.27;1.20;;;21.10;93.50;;;;;;4968554;28;20624;-68
2023/08/02 11:17:10;;;;;;;1.20;1.10;;;21.10;93.40;;;;;;4960238;28;20531;-69
2023/08/02 11:19:37;;;;;;;2.03;1.10;;;21.10;94.00;;;;;;4968512;28;20430;-67
2023/08/02 11:22:02;;;;;;;1.03;0.97;;;21.10;94.50;;;;;;4969518;28;20469;-68
2023/08/02 11:24:40;;;;;;;2.80;2.27;;;21.10;94.50;;;;;;4968632;28;20449;-63
2023/08/02 11:27:06;;;;;;;2.10;1.10;;;21.10;94.50;;;;;;4977208;28;20177;-67
2023/08/02 11:29:31;;;;;;;5.80;1.00;;;21.00;94.10;;;;;;4968935;28;20516;-70
2023/08/02 11:32:02;;;;;;;1.13;1.03;;;21.00;94.10;;;;;;4976155;28;20301;-66
2023/08/02 11:34:28;;;;;;;0.83;0.83;;;21.00;94.20;;;;;;4968047;28;20572;-66
2023/08/02 11:36:55;;;;;;;1.13;1.03;;;21.00;93.70;;;;;;4969678;28;20425;-69
2023/08/02 11:39:21;;;;;;;6.30;1.67;;;21.00;94.10;;;;;;4968085;28;20444;-69
2023/08/02 11:42:16;;;;;;;0.90;0.80;;;21.00;94.10;;;;;;4969068;28;20448;-68
2023/08/02 11:44:44;;;;;;;1.00;0.90;;;21.00;93.50;;;;;;4976851;28;20504;-69
2023/08/02 11:47:11;;;;;;;1.00;0.83;;;21.00;93.80;;;;;;4969718;28;20741;-69
2023/08/02 11:49:56;;;;;;;1.20;1.00;;;21.00;93.80;;;;;;4975400;28;20417;-71
2023/08/02 11:52:30;;;;;;;1.57;1.30;;;21.00;94.00;;;;;;4960625;28;20473;-67
2023/08/02 11:54:56;;;;;;;1.13;1.07;;;21.10;93.80;;;;;;4968023;28;20442;-69
2023/08/02 11:57:23;;;;;;;1.17;1.10;;;21.10;93.50;;;;;;4968027;28;20533;-71
2023/08/02 11:59:50;;;;;;;0.97;0.87;;;21.20;93.60;;;;;;4969401;28;20424;-70
2023/08/02 12:02:34;;;;;;;1.20;1.10;;;21.20;92.00;;;;;;4976112;28;20449;-66
2023/08/02 12:05:05;;;;;;;0.90;0.80;;;21.20;92.90;;;;;;4967975;28;20853;-63
2023/08/02 12:07:32;;;;;;;0.90;0.80;;;21.20;92.40;;;;;;4969715;28;20512;-66
2023/08/02 12:09:58;;;;;;;1.10;1.00;;;21.10;92.50;;;;;;4968001;28;20434;-65
2023/08/02 12:12:32;;;;;;;1.67;1.07;;;21.10;92.60;;;;;;4972007;28;20574;-70
2023/08/02 12:14:58;;;;;;;1.00;0.90;;;21.00;92.80;;;;;;4980151;28;20505;-64
2023/08/02 12:17:24;;;;;;;1.10;1.00;;;21.00;93.40;;;;;;4980294;28;20426;-64
2023/08/02 12:19:51;;;;;;;1.03;0.93;;;21.00;93.30;;;;;;4973077;28;20972;-68
2023/08/02 12:22:18;;;;;;;0.90;0.80;;;21.00;93.90;;;;;;4971273;28;20473;-69
2023/08/02 12:24:44;;;;;;;2.60;1.40;;;21.00;93.90;;;;;;4971670;28;20437;-67
2023/08/02 12:27:18;;;;;;;1.23;1.13;;;21.00;94.10;;;;;;4971426;28;20438;-68
2023/08/02 12:29:44;;;;;;;1.43;1.33;;;21.00;94.00;;;;;;4987311;28;20186;-67
2023/08/02 12:32:11;;;;;;;2.63;1.20;;;21.00;94.40;;;;;;4980625;28;20891;-70
2023/08/02 12:34:36;;;;;;;1.27;1.17;;;20.90;94.30;;;;;;4972752;28;20473;-69
2023/08/02 12:37:03;;;;;;;0.90;0.80;;;20.90;94.60;;;;;;4979513;28;20867;-70
2023/08/02 12:39:29;;;;;;;1.10;1.00;;;20.90;94.70;;;;;;4979248;28;20237;-67
2023/08/02 12:41:54;;;;;;;1.00;0.90;;;20.90;94.50;;;;;;4972175;28;20446;-66
2023/08/02 12:44:20;;;;;;;1.00;0.90;;;20.90;95.10;;;;;;4986752;28;20183;-67
2023/08/02 12:46:46;;;;;;;1.43;0.90;;;20.90;95.30;;;;;;4970851;28;20175;-63
2023/08/02 12:49:11;;;;;;;1.10;1.10;;;20.80;95.10;;;;;;4979102;28;20273;-65
2023/08/02 12:51:38;;;;;;;1.07;0.97;;;20.80;94.90;;;;;;4957056;28;20524;-65
2023/08/02 12:54:04;;;;;;;1.13;1.03;;;20.80;94.80;;;;;;4970791;28;20221;-65
2023/08/02 12:56:30;;;;;;;1.10;1.00;;;20.80;95.10;;;;;;4976704;28;20503;-64
2023/08/02 12:58:56;;;;;;;1.23;1.00;;;20.70;95.30;;;;;;4976070;28;20541;-67
2023/08/02 13:01:21;;;;;;;1.00;0.90;;;20.70;95.40;;;;;;4973931;28;20622;-66
2023/08/02 13:03:47;;;;;;;0.80;0.70;;;20.70;95.60;;;;;;4983585;28;20182;-63
2023/08/02 13:06:13;;;;;;;0.90;0.80;;;20.70;95.60;;;;;;4971860;28;20190;-70
2023/08/02 13:08:38;;;;;;;1.10;1.00;;;20.60;95.80;;;;;;4972006;28;20706;-65
2023/08/02 13:11:04;;;;;;;1.23;1.00;;;20.60;95.80;;;;;;4979749;28;20272;-64
2023/08/02 13:13:29;;;;;;;0.90;0.80;;;20.60;96.20;;;;;;4971301;28;20670;-71
2023/08/02 13:15:55;;;;;;;2.00;0.90;;;20.60;96.20;;;;;;4971898;28;20194;-71
2023/08/02 13:18:21;;;;;;;2.80;1.20;;;20.60;96.70;;;;;;4979804;28;20480;-65
2023/08/02 13:20:46;;;;;;;0.90;0.80;;;20.50;96.50;;;;;;4970387;28;20673;-68
2023/08/02 13:23:12;;;;;;;1.10;0.90;;;20.50;96.50;;;;;;4970617;28;20194;-67
2023/08/02 13:25:38;;;;;;;1.13;1.07;;;20.50;96.70;;;;;;4971611;28;20692;-65
2023/08/02 13:28:05;;;;;;;1.10;1.00;;;20.60;97.30;;;;;;4977097;28;20285;-68
2023/08/02 13:30:31;;;;;;;1.30;1.20;;;20.60;97.20;;;;;;4971513;28;20441;-70
2023/08/02 13:32:57;;;;;;;1.00;0.90;;;20.60;97.30;;;;;;4977552;28;21003;-64
2023/08/02 13:35:23;;;;;;;0.90;0.80;;;20.60;97.30;;;;;;4970187;28;20185;-69
2023/08/02 13:37:49;;;;;;;2.37;1.20;;;20.60;97.20;;;;;;4971477;28;20721;-69
2023/08/02 13:40:15;;;;;;;1.67;0.90;;;20.50;97.30;;;;;;4969515;28;20433;-74
2023/08/02 13:42:41;;;;;;;1.27;1.17;;;20.50;97.30;;;;;;4970055;28;20245;-67
2023/08/02 13:45:07;;;;;;;0.97;0.90;;;20.50;97.30;;;;;;4971181;28;20429;-71
2023/08/02 13:47:32;;;;;;;1.00;0.90;;;20.50;97.30;;;;;;4969623;28;20191;-71
2023/08/02 13:49:58;;;;;;;1.67;1.13;;;20.50;97.30;;;;;;4977944;28;20537;-72
2023/08/02 13:52:24;;;;;;;1.10;1.00;;;20.50;97.30;;;;;;4958391;28;20257;-70
2023/08/02 13:54:49;;;;;;;1.23;1.13;;;20.40;97.30;;;;;;4963295;28;20646;-66
2023/08/02 13:57:15;;;;;;;2.70;1.60;;;20.30;97.30;;;;;;4968338;28;20190;-72
2023/08/02 13:59:41;;;;;;;1.30;1.30;;;20.30;97.30;;;;;;4966205;28;20256;-76
2023/08/02 14:02:07;;;;;;;1.00;0.90;;;20.20;97.30;;;;;;4966425;28;20651;-68
2023/08/02 14:04:33;;;;;;;6.20;1.40;;;20.20;97.30;;;;;;4967267;28;20190;-71
2023/08/02 14:07:00;;;;;;;1.00;0.90;;;20.20;97.30;;;;;;4965445;28;20438;-73
2023/08/02 14:09:25;;;;;;;1.00;0.90;;;20.20;97.30;;;;;;4968287;28;20884;-73
2023/08/02 14:11:51;;;;;;;0.80;0.80;;;20.10;97.30;;;;;;4958919;28;21132;-72
2023/08/02 14:14:16;;;;;;;3.53;2.40;;;20.10;97.30;;;;;;4978175;28;20193;-67
2023/08/02 14:16:42;;;;;;;0.90;0.80;;;20.10;97.30;;;;;;4966357;28;20241;-72
2023/08/02 14:19:08;;;;;;;1.30;1.30;;;20.10;97.30;;;;;;4963743;28;20189;-72
2023/08/02 14:21:33;;;;;;;3.10;1.17;;;20.00;97.30;;;;;;4958033;28;20241;-65
2023/08/02 14:23:59;;;;;;;1.27;1.00;;;20.00;97.30;;;;;;4964311;28;20220;-72
2023/08/02 14:26:24;;;;;;;0.93;0.83;;;19.90;97.30;;;;;;4960083;28;20674;-73
2023/08/02 14:28:50;;;;;;;0.93;0.83;;;19.90;97.30;;;;;;4967634;28;20393;-74
2023/08/02 14:31:16;;;;;;;1.23;0.90;;;19.80;97.30;;;;;;4966115;28;20285;-73
2023/08/02 14:33:43;;;;;;;0.90;0.80;;;19.80;97.30;;;;;;4970413;28;20564;-74
2023/08/02 14:36:09;;;;;;;0.90;0.80;;;19.70;97.30;;;;;;4961490;28;20529;-72
2023/08/02 14:38:34;;;;;;;1.43;1.00;;;19.70;97.30;;;;;;4945141;28;20883;-72
2023/08/02 14:41:01;;;;;;;1.40;1.30;;;19.60;97.30;;;;;;4961616;28;20642;-71
2023/08/02 14:43:27;;;;;;;1.50;1.40;;;19.60;97.30;;;;;;4968533;28;20347;-72
2023/08/02 14:45:53;;;;;;;1.10;1.10;;;19.50;97.30;;;;;;4959920;28;20481;-71
2023/08/02 14:48:19;;;;;;;1.30;1.00;;;19.40;97.30;;;;;;4973530;28;20186;-70
2023/08/02 14:50:44;;;;;;;1.10;1.00;;;19.30;97.30;;;;;;4969853;28;20466;-72
2023/08/02 14:53:10;;;;;;;1.03;0.97;;;19.20;97.30;;;;;;4964260;28;20217;-64
2023/08/02 14:55:37;;;;;;;1.60;1.50;;;19.20;97.30;;;;;;4962636;28;20236;-71
2023/08/02 14:58:03;;;;;;;1.10;1.00;;;19.10;97.30;;;;;;4962423;28;20187;-72
2023/08/02 15:00:29;;;;;;;1.00;1.00;;;19.00;97.30;;;;;;4963754;28;20458;-73
2023/08/02 15:02:54;;;;;;;1.60;1.50;;;19.00;97.30;;;;;;4960087;28;20444;-71
2023/08/02 15:05:21;;;;;;;2.40;1.10;;;19.00;97.30;;;;;;4967741;28;20190;-72
2023/08/02 15:07:46;;;;;;;1.00;0.90;;;18.90;97.30;;;;;;4970308;28;20183;-74
2023/08/02 15:10:14;;;;;;;1.00;0.90;;;18.90;97.30;;;;;;4968463;28;20505;-67
2023/08/02 15:12:43;;;;;;;0.90;0.90;;;18.90;97.30;;;;;;4962129;28;20222;-73
2023/08/02 15:15:12;;;;;;;0.70;0.70;;;18.80;97.30;;;;;;4963701;28;20440;-71
2023/08/02 15:17:39;;;;;;;0.90;0.80;;;18.90;97.30;;;;;;4963634;28;20742;-73
2023/08/02 15:20:06;;;;;;;1.00;0.90;;;18.90;97.30;;;;;;4963055;28;20921;-74
2023/08/02 15:22:31;;;;;;;1.30;0.90;;;18.80;97.30;;;;;;4953912;28;20754;-72
2023/08/02 15:24:57;;;;;;;0.90;0.80;;;18.80;97.30;;;;;;4965969;28;21073;-74
2023/08/02 15:27:22;;;;;;;1.00;0.90;;;18.80;97.30;;;;;;4970255;28;20198;-75
2023/08/02 15:29:48;;;;;;;0.80;0.80;;;18.80;97.30;;;;;;4965627;28;20178;-73
2023/08/02 15:32:13;;;;;;;2.03;1.10;;;18.90;97.30;;;;;;4961454;28;20717;-74
2023/08/02 15:34:39;;;;;;;0.90;0.80;;;18.90;97.30;;;;;;4966321;28;20497;-74
2023/08/02 15:37:05;;;;;;;1.00;1.00;;;18.90;97.30;;;;;;4965702;28;20579;-74
2023/08/02 15:39:31;;;;;;;0.90;0.80;;;18.90;97.30;;;;;;4965756;28;20454;-74
2023/08/02 15:41:58;;;;;;;1.10;1.00;;;19.00;97.30;;;;;;4968897;28;20450;-76
2023/08/02 15:44:23;;;;;;;1.03;0.93;;;19.10;97.30;;;;;;4963402;28;20198;-75
2023/08/02 15:46:49;;;;;;;1.10;0.87;;;19.10;97.30;;;;;;4960666;28;20442;-74
2023/08/02 15:49:14;;;;;;;1.00;0.90;;;19.10;97.30;;;;;;4965048;28;20541;-73
2023/08/02 15:51:41;;;;;;;0.90;0.80;;;19.10;97.30;;;;;;4964824;28;20257;-74
2023/08/02 15:54:07;;;;;;;0.90;0.80;;;19.20;97.30;;;;;;4967519;28;20282;-72
2023/08/02 15:56:32;;;;;;;1.33;1.23;;;19.20;97.30;;;;;;4966538;28;20918;-75
2023/08/02 15:58:58;;;;;;;0.80;0.80;;;19.20;97.30;;;;;;4967903;28;20214;-75
2023/08/02 16:01:25;;;;;;;1.10;1.00;;;19.30;97.30;;;;;;4965799;28;20199;-74
2023/08/02 16:03:51;;;;;;;0.90;0.80;;;19.30;97.30;;;;;;4948132;28;20179;-75
2023/08/02 16:06:17;;;;;;;0.90;0.80;;;19.40;97.30;;;;;;4966428;28;20518;-71
2023/08/02 16:08:44;;;;;;;0.90;0.80;;;19.40;97.30;;;;;;4966646;28;20603;-72
2023/08/02 16:11:10;;;;;;;0.83;0.77;;;19.50;97.30;;;;;;4964818;28;20202;-69
2023/08/02 16:13:36;;;;;;;1.10;1.00;;;19.50;97.30;;;;;;4967012;28;20524;-73
2023/08/02 16:16:01;;;;;;;1.13;1.03;;;19.60;97.30;;;;;;4965139;28;20798;-74
2023/08/02 16:18:27;;;;;;;1.00;0.90;;;19.90;97.30;;;;;;4965807;28;20175;-74
2023/08/02 16:20:53;;;;;;;0.90;0.80;;;20.00;97.30;;;;;;4948991;28;20524;-74
2023/08/02 16:23:18;;;;;;;0.80;0.70;;;20.00;97.30;;;;;;4967037;28;20241;-72
2023/08/02 16:25:44;;;;;;;0.90;0.80;;;20.20;97.30;;;;;;4969776;28;20269;-73
2023/08/02 16:28:10;;;;;;;1.00;0.90;;;20.30;97.30;;;;;;4980517;28;20197;-74
2023/08/02 16:30:36;;;;;;;2.87;0.87;;;20.30;97.30;;;;;;4979317;28;20206;-75
2023/08/02 16:33:01;;;;;;;0.90;0.80;;;20.30;97.30;;;;;;4971564;28;20835;-76
2023/08/02 16:35:27;;;;;;;0.90;0.80;;;20.50;97.30;;;;;;4975931;28;20171;-75
2023/08/02 16:37:52;;;;;;;0.73;0.70;;;20.60;97.30;;;;;;4964840;28;20703;-75
2023/08/02 16:40:18;;;;;;;0.80;0.70;;;20.70;97.30;;;;;;4968355;28;20737;-75
2023/08/02 16:42:44;;;;;;;0.90;0.80;;;20.70;97.30;;;;;;4972595;28;20194;-76
2023/08/02 16:45:10;;;;;;;0.73;0.67;;;20.70;97.30;;;;;;4970573;28;20269;-72
2023/08/02 16:47:36;;;;;;;1.77;1.13;;;20.60;97.30;;;;;;4977968;28;20183;-74
2023/08/02 16:50:03;;;;;;;0.90;0.80;;;20.60;97.30;;;;;;4968440;28;20430;-74
2023/08/02 16:52:30;;;;;;;1.00;0.90;;;20.50;97.30;;;;;;4967684;28;20464;-68
2023/08/02 16:54:55;;;;;;;0.80;0.70;;;20.50;97.30;;;;;;4948992;28;20435;-74
2023/08/02 16:57:21;;;;;;;0.73;0.70;;;20.40;97.30;;;;;;4965152;28;20423;-75